Terminal Aerodrome Forecast
Issued by NWS Caribou, ME

Home | Current Version | Previous Version | Text Only | Print | Product List | Glossary On
Versions: 1 2 3 4 5 6 7 8 9 10 11 12 13 14 15 16
597
FTUS41 KCAR 260522
TAFBGR
TAF
KBGR 260522Z 2606/2706 28003KT P6SM BKN120
     FM261000 VRB02KT P6SM VCSH BKN040
     FM261600 33009KT P6SM BKN060
     FM270100 07005KT P6SM SCT060 BKN200=

USA.gov is the U.S. government's official web portal to all federal, state and local government web resources and services.